sensor_id;sensor_type;location;lat;lon;timestamp;temperature;humidity
69324;DHT22;56470;47.350;8.718;2022-07-06T00:02:13;18.02;68.50
69324;DHT22;56470;47.350;8.718;2022-07-06T00:04:39;18.02;68.42
69324;DHT22;56470;47.350;8.718;2022-07-06T00:07:04;18.08;68.51
69324;DHT22;56470;47.350;8.718;2022-07-06T00:09:30;18.10;68.59
69324;DHT22;56470;47.350;8.718;2022-07-06T00:11:55;18.16;68.82
69324;DHT22;56470;47.350;8.718;2022-07-06T00:14:21;18.25;68.79
69324;DHT22;56470;47.350;8.718;2022-07-06T00:16:46;18.41;68.24
69324;DHT22;56470;47.350;8.718;2022-07-06T00:19:12;18.47;68.02
69324;DHT22;56470;47.350;8.718;2022-07-06T00:21:38;18.51;68.08
69324;DHT22;56470;47.350;8.718;2022-07-06T00:24:03;18.49;68.38
69324;DHT22;56470;47.350;8.718;2022-07-06T00:26:29;18.33;69.07
69324;DHT22;56470;47.350;8.718;2022-07-06T00:28:54;18.32;69.35
69324;DHT22;56470;47.350;8.718;2022-07-06T00:31:20;18.23;69.85
69324;DHT22;56470;47.350;8.718;2022-07-06T00:33:45;18.09;70.46
69324;DHT22;56470;47.350;8.718;2022-07-06T00:36:11;18.02;71.18
69324;DHT22;56470;47.350;8.718;2022-07-06T00:38:36;17.94;71.48
69324;DHT22;56470;47.350;8.718;2022-07-06T00:41:02;17.89;71.80
69324;DHT22;56470;47.350;8.718;2022-07-06T00:43:27;17.82;72.10
69324;DHT22;56470;47.350;8.718;2022-07-06T00:45:53;17.81;72.30
69324;DHT22;56470;47.350;8.718;2022-07-06T00:48:18;17.81;72.56
69324;DHT22;56470;47.350;8.718;2022-07-06T00:50:44;17.91;72.08
69324;DHT22;56470;47.350;8.718;2022-07-06T00:53:09;18.08;71.65
69324;DHT22;56470;47.350;8.718;2022-07-06T00:55:37;18.12;71.51
69324;DHT22;56470;47.350;8.718;2022-07-06T00:58:07;18.08;71.62
69324;DHT22;56470;47.350;8.718;2022-07-06T01:00:33;17.88;72.65
69324;DHT22;56470;47.350;8.718;2022-07-06T01:02:59;17.77;73.10
69324;DHT22;56470;47.350;8.718;2022-07-06T01:05:24;17.85;73.00
69324;DHT22;56470;47.350;8.718;2022-07-06T01:07:52;17.87;72.90
69324;DHT22;56470;47.350;8.718;2022-07-06T01:10:19;17.82;73.01
69324;DHT22;56470;47.350;8.718;2022-07-06T01:12:46;17.84;73.04
69324;DHT22;56470;47.350;8.718;2022-07-06T01:15:17;17.81;73.25
69324;DHT22;56470;47.350;8.718;2022-07-06T01:17:43;17.96;72.76
69324;DHT22;56470;47.350;8.718;2022-07-06T01:22:34;18.15;72.41
69324;DHT22;56470;47.350;8.718;2022-07-06T01:25:00;18.08;71.52
69324;DHT22;56470;47.350;8.718;2022-07-06T01:27:25;18.09;71.00
69324;DHT22;56470;47.350;8.718;2022-07-06T01:29:50;18.04;70.99
69324;DHT22;56470;47.350;8.718;2022-07-06T01:32:16;18.04;70.10
69324;DHT22;56470;47.350;8.718;2022-07-06T01:34:41;18.05;70.04
69324;DHT22;56470;47.350;8.718;2022-07-06T01:37:06;18.04;70.17
69324;DHT22;56470;47.350;8.718;2022-07-06T01:39:32;17.91;70.16
69324;DHT22;56470;47.350;8.718;2022-07-06T01:41:57;17.88;70.08
69324;DHT22;56470;47.350;8.718;2022-07-06T01:44:22;17.88;70.08
69324;DHT22;56470;47.350;8.718;2022-07-06T01:46:48;17.88;70.01
69324;DHT22;56470;47.350;8.718;2022-07-06T01:49:13;17.77;71.91
69324;DHT22;56470;47.350;8.718;2022-07-06T01:51:39;17.55;74.13
69324;DHT22;56470;47.350;8.718;2022-07-06T01:54:04;17.50;74.31
69324;DHT22;56470;47.350;8.718;2022-07-06T01:56:30;17.44;75.06
69324;DHT22;56470;47.350;8.718;2022-07-06T01:58:55;17.50;75.02
69324;DHT22;56470;47.350;8.718;2022-07-06T02:01:22;17.37;75.30
69324;DHT22;56470;47.350;8.718;2022-07-06T02:03:48;17.33;75.55
69324;DHT22;56470;47.350;8.718;2022-07-06T02:06:13;17.27;75.57
69324;DHT22;56470;47.350;8.718;2022-07-06T02:08:39;17.20;75.19
69324;DHT22;56470;47.350;8.718;2022-07-06T02:11:06;17.11;75.43
69324;DHT22;56470;47.350;8.718;2022-07-06T02:13:32;16.67;77.04
69324;DHT22;56470;47.350;8.718;2022-07-06T02:15:58;16.64;77.15
69324;DHT22;56470;47.350;8.718;2022-07-06T02:18:23;16.52;77.50
69324;DHT22;56470;47.350;8.718;2022-07-06T02:20:49;16.52;76.92
69324;DHT22;56470;47.350;8.718;2022-07-06T02:23:14;16.56;76.50
69324;DHT22;56470;47.350;8.718;2022-07-06T02:25:40;16.43;76.01
69324;DHT22;56470;47.350;8.718;2022-07-06T02:28:05;16.42;76.12
69324;DHT22;56470;47.350;8.718;2022-07-06T02:30:30;16.32;76.53
69324;DHT22;56470;47.350;8.718;2022-07-06T02:32:56;16.36;76.31
69324;DHT22;56470;47.350;8.718;2022-07-06T02:35:21;16.44;76.06
69324;DHT22;56470;47.350;8.718;2022-07-06T02:37:46;16.49;75.81
69324;DHT22;56470;47.350;8.718;2022-07-06T02:40:12;16.43;75.66
69324;DHT22;56470;47.350;8.718;2022-07-06T02:42:38;16.29;76.29
69324;DHT22;56470;47.350;8.718;2022-07-06T02:45:04;16.22;77.32
69324;DHT22;56470;47.350;8.718;2022-07-06T02:47:30;16.09;77.79
69324;DHT22;56470;47.350;8.718;2022-07-06T02:49:55;16.05;77.88
69324;DHT22;56470;47.350;8.718;2022-07-06T02:52:21;16.06;78.08
69324;DHT22;56470;47.350;8.718;2022-07-06T02:54:49;15.95;78.19
69324;DHT22;56470;47.350;8.718;2022-07-06T02:57:16;15.85;78.70
69324;DHT22;56470;47.350;8.718;2022-07-06T02:59:41;15.81;79.17
69324;DHT22;56470;47.350;8.718;2022-07-06T03:02:07;15.81;79.21
69324;DHT22;56470;47.350;8.718;2022-07-06T03:04:33;15.75;78.99
69324;DHT22;56470;47.350;8.718;2022-07-06T03:06:58;15.68;78.99
69324;DHT22;56470;47.350;8.718;2022-07-06T03:09:24;15.67;78.83
69324;DHT22;56470;47.350;8.718;2022-07-06T03:11:49;15.75;78.49
69324;DHT22;56470;47.350;8.718;2022-07-06T03:14:15;15.81;78.23
69324;DHT22;56470;47.350;8.718;2022-07-06T03:16:43;15.74;77.79
69324;DHT22;56470;47.350;8.718;2022-07-06T03:19:08;15.68;78.20
69324;DHT22;56470;47.350;8.718;2022-07-06T03:21:34;15.60;78.50
69324;DHT22;56470;47.350;8.718;2022-07-06T03:23:59;15.60;78.63
69324;DHT22;56470;47.350;8.718;2022-07-06T03:26:25;15.50;78.93
69324;DHT22;56470;47.350;8.718;2022-07-06T03:28:50;15.47;78.77
69324;DHT22;56470;47.350;8.718;2022-07-06T03:31:15;15.43;79.46
69324;DHT22;56470;47.350;8.718;2022-07-06T03:33:41;15.39;79.60
69324;DHT22;56470;47.350;8.718;2022-07-06T03:36:06;15.42;79.71
69324;DHT22;56470;47.350;8.718;2022-07-06T03:38:33;15.50;79.39
69324;DHT22;56470;47.350;8.718;2022-07-06T03:40:58;15.51;78.94
69324;DHT22;56470;47.350;8.718;2022-07-06T03:43:23;15.53;78.41
69324;DHT22;56470;47.350;8.718;2022-07-06T03:45:49;15.49;78.35
69324;DHT22;56470;47.350;8.718;2022-07-06T03:48:14;15.46;78.57
69324;DHT22;56470;47.350;8.718;2022-07-06T03:50:39;15.50;78.32
69324;DHT22;56470;47.350;8.718;2022-07-06T03:53:05;15.60;78.07
69324;DHT22;56470;47.350;8.718;2022-07-06T03:55:30;15.61;77.54
69324;DHT22;56470;47.350;8.718;2022-07-06T03:57:55;15.73;77.36
69324;DHT22;56470;47.350;8.718;2022-07-06T04:00:21;15.90;76.88
69324;DHT22;56470;47.350;8.718;2022-07-06T04:02:46;16.18;76.21
69324;DHT22;56470;47.350;8.718;2022-07-06T04:05:12;16.46;74.71
69324;DHT22;56470;47.350;8.718;2022-07-06T04:07:37;16.74;73.67
69324;DHT22;56470;47.350;8.718;2022-07-06T04:10:03;16.94;73.12
69324;DHT22;56470;47.350;8.718;2022-07-06T04:12:28;17.05;72.57
69324;DHT22;56470;47.350;8.718;2022-07-06T04:14:56;17.26;71.74
69324;DHT22;56470;47.350;8.718;2022-07-06T04:17:22;17.42;71.37
69324;DHT22;56470;47.350;8.718;2022-07-06T04:20:08;17.81;70.24
69324;DHT22;56470;47.350;8.718;2022-07-06T04:22:39;17.74;69.64
69324;DHT22;56470;47.350;8.718;2022-07-06T04:25:05;18.19;68.48
69324;DHT22;56470;47.350;8.718;2022-07-06T04:27:30;18.44;67.87
69324;DHT22;56470;47.350;8.718;2022-07-06T04:29:56;18.21;68.56
69324;DHT22;56470;47.350;8.718;2022-07-06T04:32:21;18.25;68.23
69324;DHT22;56470;47.350;8.718;2022-07-06T04:34:46;18.41;67.80
69324;DHT22;56470;47.350;8.718;2022-07-06T04:37:12;18.77;66.64
69324;DHT22;56470;47.350;8.718;2022-07-06T04:39:37;19.22;65.03
69324;DHT22;56470;47.350;8.718;2022-07-06T04:42:03;19.51;64.01
69324;DHT22;56470;47.350;8.718;2022-07-06T04:44:28;19.81;63.85
69324;DHT22;56470;47.350;8.718;2022-07-06T04:46:53;20.58;60.74
69324;DHT22;56470;47.350;8.718;2022-07-06T04:49:19;20.48;60.49
69324;DHT22;56470;47.350;8.718;2022-07-06T04:51:44;21.08;59.28
69324;DHT22;56470;47.350;8.718;2022-07-06T04:54:10;20.51;59.67
69324;DHT22;56470;47.350;8.718;2022-07-06T04:56:35;21.35;57.26
69324;DHT22;56470;47.350;8.718;2022-07-06T04:59:00;20.98;57.68
69324;DHT22;56470;47.350;8.718;2022-07-06T05:01:25;20.78;58.90
69324;DHT22;56470;47.350;8.718;2022-07-06T05:03:51;20.92;58.41
69324;DHT22;56470;47.350;8.718;2022-07-06T05:06:16;21.94;55.57
69324;DHT22;56470;47.350;8.718;2022-07-06T05:08:43;22.35;54.61
69324;DHT22;56470;47.350;8.718;2022-07-06T05:11:08;23.38;52.24
69324;DHT22;56470;47.350;8.718;2022-07-06T05:13:33;23.86;50.55
69324;DHT22;56470;47.350;8.718;2022-07-06T05:15:59;24.44;49.15
69324;DHT22;56470;47.350;8.718;2022-07-06T05:18:24;24.46;49.26
69324;DHT22;56470;47.350;8.718;2022-07-06T05:20:50;24.49;49.50
69324;DHT22;56470;47.350;8.718;2022-07-06T05:23:15;24.26;50.30
69324;DHT22;56470;47.350;8.718;2022-07-06T05:25:40;23.18;53.21
69324;DHT22;56470;47.350;8.718;2022-07-06T05:28:06;23.20;53.86
69324;DHT22;56470;47.350;8.718;2022-07-06T05:30:31;23.32;53.80
69324;DHT22;56470;47.350;8.718;2022-07-06T05:32:57;23.82;52.46
69324;DHT22;56470;47.350;8.718;2022-07-06T05:35:22;23.86;51.98
69324;DHT22;56470;47.350;8.718;2022-07-06T05:37:47;23.43;52.28
69324;DHT22;56470;47.350;8.718;2022-07-06T05:40:13;23.29;52.66
69324;DHT22;56470;47.350;8.718;2022-07-06T05:42:39;23.70;51.38
69324;DHT22;56470;47.350;8.718;2022-07-06T05:45:05;23.95;50.25
69324;DHT22;56470;47.350;8.718;2022-07-06T05:47:31;23.85;50.55
69324;DHT22;56470;47.350;8.718;2022-07-06T05:50:15;24.16;48.23
69324;DHT22;56470;47.350;8.718;2022-07-06T05:52:43;24.36;48.13
69324;DHT22;56470;47.350;8.718;2022-07-06T05:55:11;24.40;47.88
69324;DHT22;56470;47.350;8.718;2022-07-06T05:57:36;25.09;46.13
69324;DHT22;56470;47.350;8.718;2022-07-06T06:00:06;25.92;44.16
69324;DHT22;56470;47.350;8.718;2022-07-06T06:02:37;25.46;45.33
69324;DHT22;56470;47.350;8.718;2022-07-06T06:05:03;26.35;43.64
69324;DHT22;56470;47.350;8.718;2022-07-06T06:07:28;25.69;44.07
69324;DHT22;56470;47.350;8.718;2022-07-06T06:09:53;26.57;42.30
69324;DHT22;56470;47.350;8.718;2022-07-06T06:12:19;27.19;39.67
69324;DHT22;56470;47.350;8.718;2022-07-06T06:14:44;26.86;40.07
69324;DHT22;56470;47.350;8.718;2022-07-06T06:17:10;26.57;39.37
69324;DHT22;56470;47.350;8.718;2022-07-06T06:19:35;27.09;38.75
69324;DHT22;56470;47.350;8.718;2022-07-06T06:22:02;27.08;38.87
69324;DHT22;56470;47.350;8.718;2022-07-06T06:24:27;26.80;39.19
69324;DHT22;56470;47.350;8.718;2022-07-06T06:26:53;27.14;37.55
69324;DHT22;56470;47.350;8.718;2022-07-06T06:29:18;26.81;37.52
69324;DHT22;56470;47.350;8.718;2022-07-06T06:31:44;27.53;35.59
69324;DHT22;56470;47.350;8.718;2022-07-06T06:34:09;27.26;36.47
69324;DHT22;56470;47.350;8.718;2022-07-06T06:36:35;26.78;37.82
69324;DHT22;56470;47.350;8.718;2022-07-06T06:39:00;25.77;39.39
69324;DHT22;56470;47.350;8.718;2022-07-06T06:41:27;26.70;38.16
69324;DHT22;56470;47.350;8.718;2022-07-06T06:43:52;27.61;36.44
69324;DHT22;56470;47.350;8.718;2022-07-06T06:46:18;28.23;37.65
69324;DHT22;56470;47.350;8.718;2022-07-06T06:48:43;27.95;35.62
69324;DHT22;56470;47.350;8.718;2022-07-06T06:51:09;27.59;36.63
69324;DHT22;56470;47.350;8.718;2022-07-06T06:53:34;26.92;38.03
69324;DHT22;56470;47.350;8.718;2022-07-06T06:55:59;27.49;37.72
69324;DHT22;56470;47.350;8.718;2022-07-06T06:58:25;27.66;37.11
69324;DHT22;56470;47.350;8.718;2022-07-06T07:00:50;28.23;36.09
69324;DHT22;56470;47.350;8.718;2022-07-06T07:03:16;28.68;35.24
69324;DHT22;56470;47.350;8.718;2022-07-06T07:05:41;28.49;35.68
69324;DHT22;56470;47.350;8.718;2022-07-06T07:08:06;28.19;35.81
69324;DHT22;56470;47.350;8.718;2022-07-06T07:10:32;28.57;35.00
69324;DHT22;56470;47.350;8.718;2022-07-06T07:12:58;27.98;35.84
69324;DHT22;56470;47.350;8.718;2022-07-06T07:15:23;28.70;35.54
69324;DHT22;56470;47.350;8.718;2022-07-06T07:17:49;27.76;36.51
69324;DHT22;56470;47.350;8.718;2022-07-06T07:20:14;28.49;35.88
69324;DHT22;56470;47.350;8.718;2022-07-06T07:22:39;28.08;35.68
69324;DHT22;56470;47.350;8.718;2022-07-06T07:25:05;28.68;34.53
69324;DHT22;56470;47.350;8.718;2022-07-06T07:27:31;28.71;34.69
69324;DHT22;56470;47.350;8.718;2022-07-06T07:29:56;29.11;34.23
69324;DHT22;56470;47.350;8.718;2022-07-06T07:32:21;29.80;32.98
69324;DHT22;56470;47.350;8.718;2022-07-06T07:34:47;30.00;32.98
69324;DHT22;56470;47.350;8.718;2022-07-06T07:37:12;29.80;33.34
69324;DHT22;56470;47.350;8.718;2022-07-06T07:39:37;27.87;36.62
69324;DHT22;56470;47.350;8.718;2022-07-06T07:42:04;27.85;36.07
69324;DHT22;56470;47.350;8.718;2022-07-06T07:44:30;26.81;37.51
69324;DHT22;56470;47.350;8.718;2022-07-06T07:46:55;27.06;37.75
69324;DHT22;56470;47.350;8.718;2022-07-06T07:49:20;27.73;36.25
69324;DHT22;56470;47.350;8.718;2022-07-06T07:51:49;27.64;36.64
69324;DHT22;56470;47.350;8.718;2022-07-06T07:54:14;29.19;34.32
69324;DHT22;56470;47.350;8.718;2022-07-06T07:56:39;30.25;32.79
69324;DHT22;56470;47.350;8.718;2022-07-06T07:59:08;30.88;31.10
69324;DHT22;56470;47.350;8.718;2022-07-06T08:01:33;29.66;33.20
69324;DHT22;56470;47.350;8.718;2022-07-06T08:03:59;28.75;34.68
69324;DHT22;56470;47.350;8.718;2022-07-06T08:06:24;29.77;33.32
69324;DHT22;56470;47.350;8.718;2022-07-06T08:08:50;28.40;35.30
69324;DHT22;56470;47.350;8.718;2022-07-06T08:11:15;28.53;34.92
69324;DHT22;56470;47.350;8.718;2022-07-06T08:13:41;29.04;34.28
69324;DHT22;56470;47.350;8.718;2022-07-06T08:16:06;29.43;33.63
69324;DHT22;56470;47.350;8.718;2022-07-06T08:18:33;29.45;33.24
69324;DHT22;56470;47.350;8.718;2022-07-06T08:20:58;29.82;32.48
69324;DHT22;56470;47.350;8.718;2022-07-06T08:23:24;29.25;33.52
69324;DHT22;56470;47.350;8.718;2022-07-06T08:25:49;30.02;32.61
69324;DHT22;56470;47.350;8.718;2022-07-06T08:28:14;30.07;32.99
69324;DHT22;56470;47.350;8.718;2022-07-06T08:30:40;30.24;32.67
69324;DHT22;56470;47.350;8.718;2022-07-06T08:33:05;30.12;32.49
69324;DHT22;56470;47.350;8.718;2022-07-06T08:35:30;29.84;33.42
69324;DHT22;56470;47.350;8.718;2022-07-06T08:37:56;30.09;32.27
69324;DHT22;56470;47.350;8.718;2022-07-06T08:40:21;31.36;30.71
69324;DHT22;56470;47.350;8.718;2022-07-06T08:42:52;32.42;29.01
69324;DHT22;56470;47.350;8.718;2022-07-06T08:45:19;32.05;29.75
69324;DHT22;56470;47.350;8.718;2022-07-06T08:47:46;31.69;30.08
69324;DHT22;56470;47.350;8.718;2022-07-06T08:50:14;30.91;31.61
69324;DHT22;56470;47.350;8.718;2022-07-06T08:52:41;31.05;31.02
69324;DHT22;56470;47.350;8.718;2022-07-06T08:55:10;30.47;32.59
69324;DHT22;56470;47.350;8.718;2022-07-06T08:57:35;31.15;31.40
69324;DHT22;56470;47.350;8.718;2022-07-06T09:00:07;30.08;32.45
69324;DHT22;56470;47.350;8.718;2022-07-06T09:02:34;29.40;33.85
69324;DHT22;56470;47.350;8.718;2022-07-06T09:05:02;29.15;34.01
69324;DHT22;56470;47.350;8.718;2022-07-06T09:07:28;30.04;33.29
69324;DHT22;56470;47.350;8.718;2022-07-06T09:09:54;29.90;33.62
69324;DHT22;56470;47.350;8.718;2022-07-06T09:12:20;29.70;33.27
69324;DHT22;56470;47.350;8.718;2022-07-06T09:14:45;29.05;34.32
69324;DHT22;56470;47.350;8.718;2022-07-06T09:17:11;28.98;34.79
69324;DHT22;56470;47.350;8.718;2022-07-06T09:19:37;28.95;34.60
69324;DHT22;56470;47.350;8.718;2022-07-06T09:22:03;30.47;32.23
69324;DHT22;56470;47.350;8.718;2022-07-06T09:24:29;29.64;32.84
69324;DHT22;56470;47.350;8.718;2022-07-06T09:26:58;29.04;34.14
69324;DHT22;56470;47.350;8.718;2022-07-06T09:29:31;29.07;34.37
69324;DHT22;56470;47.350;8.718;2022-07-06T09:31:58;29.59;33.61
69324;DHT22;56470;47.350;8.718;2022-07-06T09:34:24;30.42;32.07
69324;DHT22;56470;47.350;8.718;2022-07-06T09:36:49;30.08;32.73
69324;DHT22;56470;47.350;8.718;2022-07-06T09:41:41;29.33;33.87
69324;DHT22;56470;47.350;8.718;2022-07-06T09:44:06;29.71;33.03
69324;DHT22;56470;47.350;8.718;2022-07-06T09:46:41;29.66;33.21
69324;DHT22;56470;47.350;8.718;2022-07-06T09:49:08;29.37;33.22
69324;DHT22;56470;47.350;8.718;2022-07-06T09:51:37;29.18;33.71
69324;DHT22;56470;47.350;8.718;2022-07-06T09:54:06;29.28;34.09
69324;DHT22;56470;47.350;8.718;2022-07-06T09:56:39;29.57;33.71
69324;DHT22;56470;47.350;8.718;2022-07-06T09:59:08;29.50;33.36
69324;DHT22;56470;47.350;8.718;2022-07-06T10:01:35;28.84;34.06
69324;DHT22;56470;47.350;8.718;2022-07-06T10:04:00;29.46;33.31
69324;DHT22;56470;47.350;8.718;2022-07-06T10:06:26;30.63;31.65
69324;DHT22;56470;47.350;8.718;2022-07-06T10:08:58;30.87;31.58
69324;DHT22;56470;47.350;8.718;2022-07-06T10:11:24;30.24;32.47
69324;DHT22;56470;47.350;8.718;2022-07-06T10:13:54;30.19;32.35
69324;DHT22;56470;47.350;8.718;2022-07-06T10:16:22;30.12;32.70
69324;DHT22;56470;47.350;8.718;2022-07-06T10:18:48;30.08;32.89
69324;DHT22;56470;47.350;8.718;2022-07-06T10:21:15;30.31;31.81
69324;DHT22;56470;47.350;8.718;2022-07-06T10:23:42;31.14;30.53
69324;DHT22;56470;47.350;8.718;2022-07-06T10:26:08;30.80;30.83
69324;DHT22;56470;47.350;8.718;2022-07-06T10:28:34;29.87;31.68
69324;DHT22;56470;47.350;8.718;2022-07-06T10:31:00;29.43;32.94
69324;DHT22;56470;47.350;8.718;2022-07-06T10:33:25;29.25;32.58
69324;DHT22;56470;47.350;8.718;2022-07-06T10:35:51;29.20;33.12
69324;DHT22;56470;47.350;8.718;2022-07-06T10:38:17;28.98;33.94
69324;DHT22;56470;47.350;8.718;2022-07-06T10:40:42;28.53;34.21
69324;DHT22;56470;47.350;8.718;2022-07-06T10:43:41;28.86;33.79
69324;DHT22;56470;47.350;8.718;2022-07-06T10:46:11;28.74;33.55
69324;DHT22;56470;47.350;8.718;2022-07-06T10:48:40;29.37;31.88
69324;DHT22;56470;47.350;8.718;2022-07-06T10:51:06;29.49;31.45
69324;DHT22;56470;47.350;8.718;2022-07-06T10:53:35;28.68;32.93
69324;DHT22;56470;47.350;8.718;2022-07-06T10:56:06;29.12;31.92
69324;DHT22;56470;47.350;8.718;2022-07-06T11:01:01;29.66;31.35
69324;DHT22;56470;47.350;8.718;2022-07-06T11:05:59;30.11;30.96
69324;DHT22;56470;47.350;8.718;2022-07-06T11:14:07;30.22;31.10
69324;DHT22;56470;47.350;8.718;2022-07-06T11:16:38;30.50;30.49
69324;DHT22;56470;47.350;8.718;2022-07-06T11:19:08;30.28;30.62
69324;DHT22;56470;47.350;8.718;2022-07-06T11:21:45;29.60;32.14
69324;DHT22;56470;47.350;8.718;2022-07-06T11:24:16;29.18;33.04
69324;DHT22;56470;47.350;8.718;2022-07-06T11:26:45;29.23;32.71
69324;DHT22;56470;47.350;8.718;2022-07-06T11:29:12;29.33;31.96
69324;DHT22;56470;47.350;8.718;2022-07-06T11:31:40;29.62;31.56
69324;DHT22;56470;47.350;8.718;2022-07-06T11:34:07;28.87;32.72
69324;DHT22;56470;47.350;8.718;2022-07-06T11:36:33;29.59;31.65
69324;DHT22;56470;47.350;8.718;2022-07-06T11:38:59;29.22;32.05
69324;DHT22;56470;47.350;8.718;2022-07-06T11:41:24;29.70;31.86
69324;DHT22;56470;47.350;8.718;2022-07-06T11:43:50;29.50;31.84
69324;DHT22;56470;47.350;8.718;2022-07-06T11:48:52;29.85;31.52
69324;DHT22;56470;47.350;8.718;2022-07-06T11:51:18;30.15;31.91
69324;DHT22;56470;47.350;8.718;2022-07-06T11:53:45;30.16;31.15
69324;DHT22;56470;47.350;8.718;2022-07-06T11:56:12;29.71;31.82
69324;DHT22;56470;47.350;8.718;2022-07-06T11:58:39;30.00;31.55
69324;DHT22;56470;47.350;8.718;2022-07-06T12:01:10;29.52;31.97
69324;DHT22;56470;47.350;8.718;2022-07-06T12:03:42;29.02;32.64
69324;DHT22;56470;47.350;8.718;2022-07-06T12:06:28;29.15;32.71
69324;DHT22;56470;47.350;8.718;2022-07-06T12:09:13;29.56;31.91
69324;DHT22;56470;47.350;8.718;2022-07-06T12:12:14;29.47;32.62
69324;DHT22;56470;47.350;8.718;2022-07-06T12:18:42;28.71;34.42
69324;DHT22;56470;47.350;8.718;2022-07-06T12:22:38;28.63;34.23
69324;DHT22;56470;47.350;8.718;2022-07-06T13:22:13;26.83;34.66
69324;DHT22;56470;47.350;8.718;2022-07-06T13:24:50;26.91;35.56
69324;DHT22;56470;47.350;8.718;2022-07-06T13:42:10;27.06;36.23
69324;DHT22;56470;47.350;8.718;2022-07-06T13:45:48;27.05;35.84
69324;DHT22;56470;47.350;8.718;2022-07-06T13:49:19;26.92;36.56
69324;DHT22;56470;47.350;8.718;2022-07-06T13:51:53;26.99;36.24
69324;DHT22;56470;47.350;8.718;2022-07-06T13:54:20;26.88;36.35
69324;DHT22;56470;47.350;8.718;2022-07-06T13:56:47;26.76;36.77
69324;DHT22;56470;47.350;8.718;2022-07-06T13:59:18;26.69;36.74
69324;DHT22;56470;47.350;8.718;2022-07-06T14:01:45;26.91;36.29
69324;DHT22;56470;47.350;8.718;2022-07-06T14:04:13;26.83;36.60
69324;DHT22;56470;47.350;8.718;2022-07-06T14:06:39;26.91;36.71
69324;DHT22;56470;47.350;8.718;2022-07-06T14:09:07;26.80;36.33
69324;DHT22;56470;47.350;8.718;2022-07-06T14:11:32;26.84;36.25
69324;DHT22;56470;47.350;8.718;2022-07-06T14:13:58;26.92;35.51
69324;DHT22;56470;47.350;8.718;2022-07-06T14:16:40;26.83;35.84
69324;DHT22;56470;47.350;8.718;2022-07-06T14:19:06;26.94;35.25
69324;DHT22;56470;47.350;8.718;2022-07-06T14:21:50;26.88;35.05
69324;DHT22;56470;47.350;8.718;2022-07-06T14:24:19;26.63;35.54
69324;DHT22;56470;47.350;8.718;2022-07-06T14:26:47;26.59;35.82
69324;DHT22;56470;47.350;8.718;2022-07-06T14:29:13;26.80;34.91
69324;DHT22;56470;47.350;8.718;2022-07-06T14:31:42;26.88;34.58
69324;DHT22;56470;47.350;8.718;2022-07-06T14:34:23;26.88;34.27
69324;DHT22;56470;47.350;8.718;2022-07-06T14:37:09;26.94;34.49
69324;DHT22;56470;47.350;8.718;2022-07-06T14:39:35;26.90;34.52
69324;DHT22;56470;47.350;8.718;2022-07-06T14:42:02;26.78;34.41
69324;DHT22;56470;47.350;8.718;2022-07-06T14:44:53;26.81;34.12
69324;DHT22;56470;47.350;8.718;2022-07-06T14:47:38;26.74;34.73
69324;DHT22;56470;47.350;8.718;2022-07-06T14:50:18;26.86;34.51
69324;DHT22;56470;47.350;8.718;2022-07-06T14:53:26;26.91;34.03
69324;DHT22;56470;47.350;8.718;2022-07-06T14:57:15;26.97;33.93
69324;DHT22;56470;47.350;8.718;2022-07-06T15:00:29;26.76;33.52
69324;DHT22;56470;47.350;8.718;2022-07-06T15:03:41;26.65;32.35
69324;DHT22;56470;47.350;8.718;2022-07-06T15:06:54;26.52;33.32
69324;DHT22;56470;47.350;8.718;2022-07-06T15:09:43;26.52;33.95
69324;DHT22;56470;47.350;8.718;2022-07-06T15:12:51;26.46;34.41
69324;DHT22;56470;47.350;8.718;2022-07-06T15:15:22;26.46;34.88
69324;DHT22;56470;47.350;8.718;2022-07-06T15:17:52;26.36;35.06
69324;DHT22;56470;47.350;8.718;2022-07-06T15:20:50;26.53;34.97
69324;DHT22;56470;47.350;8.718;2022-07-06T15:24:26;26.65;34.70
69324;DHT22;56470;47.350;8.718;2022-07-06T15:26:59;26.60;33.95
69324;DHT22;56470;47.350;8.718;2022-07-06T15:29:26;26.46;33.91
69324;DHT22;56470;47.350;8.718;2022-07-06T15:32:14;26.40;33.83
69324;DHT22;56470;47.350;8.718;2022-07-06T15:34:40;26.36;34.70
69324;DHT22;56470;47.350;8.718;2022-07-06T15:39:45;26.60;34.37
69324;DHT22;56470;47.350;8.718;2022-07-06T15:42:14;26.50;32.65
69324;DHT22;56470;47.350;8.718;2022-07-06T15:45:06;26.36;32.74
69324;DHT22;56470;47.350;8.718;2022-07-06T15:48:05;26.37;33.09
69324;DHT22;56470;47.350;8.718;2022-07-06T15:50:34;26.44;33.27
69324;DHT22;56470;47.350;8.718;2022-07-06T15:53:06;26.44;32.83
69324;DHT22;56470;47.350;8.718;2022-07-06T15:55:52;26.36;32.41
69324;DHT22;56470;47.350;8.718;2022-07-06T15:58:23;26.36;32.33
69324;DHT22;56470;47.350;8.718;2022-07-06T16:00:49;26.31;32.28
69324;DHT22;56470;47.350;8.718;2022-07-06T16:03:17;26.28;32.54
69324;DHT22;56470;47.350;8.718;2022-07-06T16:05:43;26.28;32.35
69324;DHT22;56470;47.350;8.718;2022-07-06T16:08:09;26.29;32.47
69324;DHT22;56470;47.350;8.718;2022-07-06T16:10:40;26.22;32.00
69324;DHT22;56470;47.350;8.718;2022-07-06T16:13:13;26.24;32.23
69324;DHT22;56470;47.350;8.718;2022-07-06T16:15:39;26.15;32.35
69324;DHT22;56470;47.350;8.718;2022-07-06T16:18:07;26.19;32.70
69324;DHT22;56470;47.350;8.718;2022-07-06T16:20:33;26.16;31.88
69324;DHT22;56470;47.350;8.718;2022-07-06T16:22:58;26.08;32.07
69324;DHT22;56470;47.350;8.718;2022-07-06T16:25:24;26.14;31.81
69324;DHT22;56470;47.350;8.718;2022-07-06T16:27:51;26.19;31.77
69324;DHT22;56470;47.350;8.718;2022-07-06T16:30:18;26.19;31.69
69324;DHT22;56470;47.350;8.718;2022-07-06T16:32:46;26.16;31.53
69324;DHT22;56470;47.350;8.718;2022-07-06T16:35:12;26.14;30.91
69324;DHT22;56470;47.350;8.718;2022-07-06T16:37:39;26.06;30.37
69324;DHT22;56470;47.350;8.718;2022-07-06T16:40:05;26.04;30.56
69324;DHT22;56470;47.350;8.718;2022-07-06T16:42:32;26.01;30.50
69324;DHT22;56470;47.350;8.718;2022-07-06T16:45:04;25.99;30.38
69324;DHT22;56470;47.350;8.718;2022-07-06T16:48:02;25.81;29.08
69324;DHT22;56470;47.350;8.718;2022-07-06T16:50:27;25.81;29.91
69324;DHT22;56470;47.350;8.718;2022-07-06T16:52:53;25.80;29.85
69324;DHT22;56470;47.350;8.718;2022-07-06T16:55:21;25.75;29.81
69324;DHT22;56470;47.350;8.718;2022-07-06T16:58:04;25.64;30.12
69324;DHT22;56470;47.350;8.718;2022-07-06T17:01:14;25.67;30.89
69324;DHT22;56470;47.350;8.718;2022-07-06T17:03:43;25.74;31.44
69324;DHT22;56470;47.350;8.718;2022-07-06T17:06:08;25.75;31.46
69324;DHT22;56470;47.350;8.718;2022-07-06T17:08:53;25.73;31.71
69324;DHT22;56470;47.350;8.718;2022-07-06T17:11:21;25.61;32.10
69324;DHT22;56470;47.350;8.718;2022-07-06T17:13:46;25.54;30.78
69324;DHT22;56470;47.350;8.718;2022-07-06T17:16:23;25.51;30.12
69324;DHT22;56470;47.350;8.718;2022-07-06T17:18:48;25.46;30.07
69324;DHT22;56470;47.350;8.718;2022-07-06T17:21:14;25.37;29.99